Time;durP1;ratioP1;P1;durP2;ratioP2;P2;SDS_P1;SDS_P2;PMS_P1;PMS_P2;Temp;Humidity;BMP_temperature;BMP_pressure;BME280_temperature;BME280_humidity;BME280_pressure;Samples;Min_cycle;Max_cycle;Signal;HPM_P1;HPM_P2
2022/07/05 00:02:26;;;;;;;2.05;1.17;;;;;;;16.34;88.65;96188.69;5011791;28;24874;-76
2022/07/05 00:04:53;;;;;;;1.50;1.30;;;;;;;16.27;89.46;96179.66;5011818;28;24486;-76
2022/07/05 00:07:20;;;;;;;2.58;1.40;;;;;;;16.15;91.03;96181.47;5009325;28;24447;-76
2022/07/05 00:09:48;;;;;;;1.67;1.35;;;;;;;16.08;91.28;96184.69;5011852;28;24524;-76
2022/07/05 00:12:15;;;;;;;3.25;1.40;;;;;;;16.00;90.63;96182.69;5004575;28;24444;-76
2022/07/05 00:14:42;;;;;;;4.57;1.33;;;;;;;15.90;92.40;96177.31;5008906;28;24433;-76
2022/07/05 00:17:10;;;;;;;1.70;1.10;;;;;;;15.89;92.19;96170.44;5009424;28;24444;-76
2022/07/05 00:19:36;;;;;;;3.65;1.20;;;;;;;15.89;92.51;96174.84;5011513;28;24463;-76
2022/07/05 00:22:04;;;;;;;1.90;1.20;;;;;;;15.94;92.17;96177.91;5003618;28;24504;-76
2022/07/05 00:24:31;;;;;;;3.97;1.30;;;;;;;15.93;92.85;96171.03;5011170;28;24841;-76
2022/07/05 00:26:58;;;;;;;2.85;1.20;;;;;;;15.98;91.41;96171.50;5010926;28;24451;-76
2022/07/05 00:29:24;;;;;;;1.38;1.15;;;;;;;16.03;90.71;96169.38;5011397;28;24439;-76
2022/07/05 00:31:50;;;;;;;3.60;1.10;;;;;;;15.81;93.52;96166.78;5011452;28;24440;-76
2022/07/05 00:34:17;;;;;;;2.10;1.05;;;;;;;15.77;94.25;96167.97;5006942;28;24444;-76
2022/07/05 00:36:44;;;;;;;1.88;1.10;;;;;;;15.80;94.47;96167.72;5011006;28;24535;-76
2022/07/05 00:39:12;;;;;;;2.33;1.35;;;;;;;15.60;96.91;96169.22;5010843;28;24458;-76
2022/07/05 00:41:39;;;;;;;2.30;1.15;;;;;;;15.74;96.15;96166.41;5011267;28;24519;-76
2022/07/05 00:44:08;;;;;;;2.27;1.30;;;;;;;15.63;94.39;96174.22;5007217;28;24463;-76
2022/07/05 00:46:35;;;;;;;2.45;1.23;;;;;;;15.70;93.01;96186.72;5010574;28;24444;-76
2022/07/05 00:49:03;;;;;;;1.87;1.23;;;;;;;15.60;92.95;96177.03;5010985;28;24530;-76
2022/07/05 00:51:31;;;;;;;1.67;1.17;;;;;;;15.52;91.04;96180.25;5010923;28;24853;-76
2022/07/05 00:53:59;;;;;;;1.90;1.20;;;;;;;15.38;92.47;96170.84;5011043;28;24837;-76
2022/07/05 00:56:27;;;;;;;1.80;1.20;;;;;;;15.34;92.84;96179.84;5010438;28;24801;-76
2022/07/05 00:58:55;;;;;;;2.88;1.30;;;;;;;15.42;91.40;96179.25;5010471;28;25019;-76
2022/07/05 01:01:21;;;;;;;2.10;1.25;;;;;;;15.45;91.28;96179.03;5010710;28;24480;-76
2022/07/05 01:03:48;;;;;;;1.50;1.20;;;;;;;15.25;94.39;96185.78;5010497;28;24972;-76
2022/07/05 01:06:15;;;;;;;2.40;1.40;;;;;;;15.39;92.50;96180.34;5010676;28;24432;-76
2022/07/05 01:08:45;;;;;;;2.00;1.20;;;;;;;15.27;94.73;96177.81;5010437;28;24809;-76
2022/07/05 01:11:12;;;;;;;1.70;1.30;;;;;;;15.10;96.69;96187.75;5006860;28;24425;-76
2022/07/05 01:13:40;;;;;;;3.38;1.27;;;;;;;15.11;95.83;96189.41;5010633;28;24516;-76
2022/07/05 01:16:08;;;;;;;2.17;1.27;;;;;;;15.05;96.83;96186.41;5010549;28;24432;-76
2022/07/05 01:18:35;;;;;;;2.88;1.30;;;;;;;15.08;94.97;96194.84;5010298;28;24444;-76
2022/07/05 01:21:03;;;;;;;3.22;1.52;;;;;;;15.14;95.58;96193.56;5005234;28;25024;-76
2022/07/05 01:23:33;;;;;;;2.33;1.40;;;;;;;14.97;97.19;96189.59;5008013;28;24440;-76
2022/07/05 01:26:01;;;;;;;6.10;1.40;;;;;;;14.91;96.13;96190.06;4996906;28;25000;-76
2022/07/05 01:28:28;;;;;;;5.10;1.30;;;;;;;14.82;97.64;96185.50;5010201;28;24444;-76
2022/07/05 01:30:54;;;;;;;1.80;1.30;;;;;;;14.76;99.11;96184.19;5002589;28;24444;-76
2022/07/05 01:33:28;;;;;;;1.93;1.50;;;;;;;14.80;99.27;96188.22;5006554;28;24433;-76
2022/07/05 01:35:54;;;;;;;4.00;1.30;;;;;;;14.91;98.94;96184.84;5010196;28;24431;-76
2022/07/05 01:38:21;;;;;;;1.65;1.20;;;;;;;15.01;97.28;96185.81;5010021;28;24452;-76
2022/07/05 01:40:51;;;;;;;1.58;1.20;;;;;;;14.95;98.24;96183.66;5010191;28;24456;-76
2022/07/05 01:43:18;;;;;;;1.90;1.00;;;;;;;14.91;96.73;96182.22;5010189;28;24405;-76
2022/07/05 01:45:46;;;;;;;2.63;1.35;;;;;;;14.95;96.18;96183.66;5010347;28;24495;-76
2022/07/05 01:48:14;;;;;;;2.50;1.20;;;;;;;14.99;95.41;96188.53;5010236;28;24439;-78
2022/07/05 01:50:46;;;;;;;1.58;1.13;;;;;;;14.96;96.00;96193.97;5009906;28;24444;-78
2022/07/05 01:53:18;;;;;;;2.47;1.30;;;;;;;14.85;97.37;96187.88;5010922;28;24436;-77
2022/07/05 01:55:44;;;;;;;1.20;1.10;;;;;;;14.95;94.28;96187.09;5010270;28;24436;-77
2022/07/05 01:58:12;;;;;;;1.73;1.20;;;;;;;14.87;95.41;96191.19;4997142;28;24448;-77
2022/07/05 02:00:47;;;;;;;2.80;1.20;;;;;;;14.61;98.37;96185.25;5009181;28;24461;-77
2022/07/05 02:03:14;;;;;;;3.30;1.45;;;;;;;14.43;100.00;96187.41;5010152;28;24428;-77
2022/07/05 02:05:41;;;;;;;1.30;1.20;;;;;;;14.38;100.00;96182.50;5009120;28;25301;-77
2022/07/05 02:08:08;;;;;;;2.08;1.10;;;;;;;14.33;100.00;96183.78;5010091;28;24444;-77
2022/07/05 02:10:35;;;;;;;1.92;1.10;;;;;;;14.36;100.00;96180.97;5009982;28;24984;-77
2022/07/05 02:13:02;;;;;;;3.17;1.30;;;;;;;14.35;100.00;96174.06;5010589;28;24822;-77
2022/07/05 02:15:30;;;;;;;2.42;1.23;;;;;;;14.42;100.00;96178.75;5006353;28;25007;-77
2022/07/05 02:17:57;;;;;;;2.58;1.20;;;;;;;14.42;100.00;96183.94;5014076;28;24491;-77
2022/07/05 02:20:23;;;;;;;1.88;1.38;;;;;;;14.41;100.00;96179.69;5014141;28;24456;-77
2022/07/05 02:22:50;;;;;;;1.95;1.38;;;;;;;14.45;98.49;96182.91;5014270;28;24428;-77
2022/07/05 02:25:16;;;;;;;4.65;1.30;;;;;;;14.34;99.04;96175.84;5007979;28;24794;-77
2022/07/05 02:27:43;;;;;;;3.10;1.23;;;;;;;14.24;99.70;96175.69;5013398;28;25068;-78
2022/07/05 02:30:10;;;;;;;1.52;1.20;;;;;;;14.25;99.80;96176.53;5013828;28;24440;-77
2022/07/05 02:32:38;;;;;;;2.83;1.45;;;;;;;14.42;97.28;96176.13;5002917;28;24791;-77
2022/07/05 02:35:06;;;;;;;2.40;1.40;;;;;;;14.28;96.65;96178.91;5001160;28;24837;-77
2022/07/05 02:37:32;;;;;;;2.10;1.30;;;;;;;14.09;97.92;96170.72;5002558;28;25056;-77
2022/07/05 02:39:59;;;;;;;1.98;1.33;;;;;;;13.99;99.29;96179.19;5013474;28;24453;-77
2022/07/05 02:42:25;;;;;;;1.30;1.13;;;;;;;13.95;99.65;96176.91;5013687;28;24444;-77
2022/07/05 02:44:52;;;;;;;1.75;1.10;;;;;;;14.03;97.24;96183.25;5005423;28;24439;-77
2022/07/05 02:47:18;;;;;;;2.50;1.20;;;;;;;13.99;97.52;96187.00;4997329;28;24445;-77
2022/07/05 02:49:46;;;;;;;4.40;1.60;;;;;;;13.90;98.08;96178.97;5009589;28;24444;-77
2022/07/05 02:52:12;;;;;;;1.58;1.27;;;;;;;13.80;99.37;96190.03;5013170;28;24435;-77
2022/07/05 02:54:39;;;;;;;2.10;1.63;;;;;;;13.80;99.38;96184.84;5013083;28;26133;-77
2022/07/05 02:57:06;;;;;;;3.15;1.40;;;;;;;13.59;100.00;96193.28;5013019;28;24536;-77
2022/07/05 02:59:33;;;;;;;3.97;2.03;;;;;;;13.62;100.00;96191.31;5012648;28;24456;-78
2022/07/05 03:01:59;;;;;;;3.28;2.00;;;;;;;13.69;100.00;96186.53;5013077;28;25007;-78
2022/07/05 03:04:26;;;;;;;3.97;1.70;;;;;;;13.60;100.00;96187.13;5013547;28;24436;-78
2022/07/05 03:06:53;;;;;;;1.50;1.30;;;;;;;13.73;100.00;96185.38;5008130;28;24451;-77
2022/07/05 03:09:20;;;;;;;2.33;1.40;;;;;;;13.62;100.00;96191.31;5013371;28;24432;-77
2022/07/05 03:11:46;;;;;;;3.80;1.65;;;;;;;13.64;100.00;96191.19;5013132;28;24444;-76
2022/07/05 03:14:13;;;;;;;3.15;1.30;;;;;;;13.69;100.00;96195.16;5013099;28;24441;-77
2022/07/05 03:16:39;;;;;;;4.18;1.52;;;;;;;13.79;100.00;96197.94;5012678;28;24436;-77
2022/07/05 03:19:06;;;;;;;1.58;1.35;;;;;;;13.76;100.00;96200.78;5013110;28;24443;-77
2022/07/05 03:21:32;;;;;;;1.63;1.30;;;;;;;13.67;100.00;96197.03;5012796;28;24459;-78
2022/07/05 03:24:00;;;;;;;4.07;1.83;;;;;;;13.69;100.00;96205.56;5012690;28;24507;-77
2022/07/05 03:26:26;;;;;;;12.63;2.63;;;;;;;13.66;100.00;96199.75;5010685;28;24442;-76
2022/07/05 03:28:53;;;;;;;6.03;2.33;;;;;;;13.51;100.00;96197.22;5011903;28;24973;-76
2022/07/05 03:31:19;;;;;;;3.92;2.28;;;;;;;13.46;100.00;96195.88;5012677;28;24435;-77
2022/07/05 03:33:45;;;;;;;5.00;2.30;;;;;;;13.45;100.00;96194.22;5012480;28;24455;-77
2022/07/05 03:36:13;;;;;;;5.28;2.20;;;;;;;13.51;100.00;96194.63;5012561;28;24527;-77
2022/07/05 03:38:39;;;;;;;4.40;2.35;;;;;;;13.55;100.00;96201.28;5003089;28;24463;-77
2022/07/05 03:41:07;;;;;;;3.47;2.30;;;;;;;13.62;100.00;96193.91;5012236;28;24853;-77
2022/07/05 03:43:33;;;;;;;5.18;2.15;;;;;;;13.61;100.00;96199.19;5011941;28;24448;-77
2022/07/05 03:46:00;;;;;;;10.63;2.45;;;;;;;13.54;100.00;96210.03;5012338;28;24838;-77
2022/07/05 03:48:26;;;;;;;4.70;2.05;;;;;;;13.51;100.00;96206.81;5012144;28;24471;-77
2022/07/05 03:50:53;;;;;;;2.60;1.70;;;;;;;13.55;100.00;96209.09;5012235;28;24498;-77
2022/07/05 03:53:20;;;;;;;2.40;1.90;;;;;;;13.55;100.00;96213.47;5011963;28;24988;-77
2022/07/05 03:55:46;;;;;;;9.85;2.10;;;;;;;13.55;100.00;96222.13;5012284;28;25035;-77
2022/07/05 03:58:15;;;;;;;1.52;1.35;;;;;;;13.63;100.00;96216.38;5008698;28;24507;-77
2022/07/05 04:00:42;;;;;;;2.95;1.45;;;;;;;13.76;100.00;96225.03;5008621;28;25005;-77
2022/07/05 04:03:08;;;;;;;4.13;1.20;;;;;;;13.74;99.71;96223.47;5017288;28;24515;-78
2022/07/05 04:05:35;;;;;;;1.80;1.20;;;;;;;13.58;100.00;96231.50;5018936;28;24428;-77
2022/07/05 04:08:01;;;;;;;1.23;1.10;;;;;;;13.30;100.00;96235.91;5012789;28;24445;-77
2022/07/05 04:10:28;;;;;;;2.80;1.50;;;;;;;13.24;100.00;96233.75;5018707;28;24435;-77
2022/07/05 04:12:55;;;;;;;5.25;1.75;;;;;;;13.24;100.00;96238.13;5018818;28;24432;-77
2022/07/05 04:15:23;;;;;;;1.77;1.27;;;;;;;13.32;100.00;96236.66;5019010;28;24440;-77
2022/07/05 04:17:50;;;;;;;3.00;1.45;;;;;;;13.33;100.00;96240.09;5016147;28;24441;-77
2022/07/05 04:20:16;;;;;;;1.77;1.40;;;;;;;13.38;100.00;96247.59;5014097;28;24471;-77
2022/07/05 04:22:43;;;;;;;1.95;1.55;;;;;;;13.48;100.00;96241.66;5003711;28;24440;-77
2022/07/05 04:25:20;;;;;;;3.38;1.60;;;;;;;13.55;100.00;96248.13;5005076;28;24441;-77
2022/07/05 04:27:47;;;;;;;2.70;1.48;;;;;;;13.64;100.00;96251.88;5006122;28;24450;-77
2022/07/05 04:30:14;;;;;;;1.53;1.20;;;;;;;13.58;100.00;96241.91;5013397;28;24478;-77
2022/07/05 04:32:42;;;;;;;2.50;1.40;;;;;;;13.75;100.00;96249.38;5007189;28;24441;-77
2022/07/05 04:35:09;;;;;;;1.60;1.23;;;;;;;14.00;100.00;96251.16;5007161;28;24429;-77
2022/07/05 04:37:36;;;;;;;2.80;1.70;;;;;;;14.24;100.00;96259.06;5016773;28;24444;-78
2022/07/05 04:40:04;;;;;;;3.60;1.23;;;;;;;14.09;100.00;96257.53;5014256;28;24456;-77
2022/07/05 04:42:30;;;;;;;3.08;1.30;;;;;;;14.01;100.00;96265.00;5012760;28;24440;-77
2022/07/05 04:44:57;;;;;;;1.67;1.25;;;;;;;13.98;100.00;96260.03;5010481;28;24433;-77
2022/07/05 04:47:25;;;;;;;2.28;1.60;;;;;;;14.12;100.00;96261.66;5005153;28;24465;-78
2022/07/05 04:49:53;;;;;;;2.88;2.00;;;;;;;14.25;100.00;96254.69;5006105;28;24506;-77
2022/07/05 04:52:19;;;;;;;3.58;2.05;;;;;;;14.39;100.00;96254.56;5010489;28;24435;-77
2022/07/05 04:54:46;;;;;;;2.45;1.80;;;;;;;14.43;100.00;96257.78;5010125;28;24436;-78
2022/07/05 04:57:12;;;;;;;3.25;1.92;;;;;;;14.59;100.00;96257.56;5008680;28;24448;-78
2022/07/05 04:59:39;;;;;;;2.97;2.00;;;;;;;14.59;100.00;96260.97;5007125;28;24432;-78
2022/07/05 05:02:06;;;;;;;3.97;2.10;;;;;;;14.60;100.00;96259.22;5003481;28;24513;-77
2022/07/05 05:04:33;;;;;;;1.88;1.60;;;;;;;14.73;100.00;96260.84;5009985;28;24433;-78
2022/07/05 05:07:00;;;;;;;2.10;1.60;;;;;;;14.91;100.00;96258.69;5011407;28;24448;-77
2022/07/05 05:09:27;;;;;;;1.75;1.60;;;;;;;14.89;100.00;96259.72;5002498;28;24439;-78
2022/07/05 05:11:54;;;;;;;2.47;1.75;;;;;;;14.81;100.00;96259.47;5012577;28;24424;-78
2022/07/05 05:14:20;;;;;;;3.78;2.03;;;;;;;14.81;100.00;96252.47;5012579;28;24452;-77
2022/07/05 05:16:49;;;;;;;2.85;1.52;;;;;;;15.03;100.00;96256.13;5006863;28;24537;-77
2022/07/05 05:19:15;;;;;;;4.55;1.60;;;;;;;15.14;100.00;96259.63;5010606;28;24992;-77
2022/07/05 05:21:42;;;;;;;2.88;1.42;;;;;;;15.32;100.00;96259.22;5012435;28;24456;-77
2022/07/05 05:24:09;;;;;;;2.83;1.40;;;;;;;15.35;96.99;96253.75;5012276;28;24992;-78
2022/07/05 05:26:36;;;;;;;1.88;1.40;;;;;;;15.29;96.51;96260.28;5008470;28;24552;-78
2022/07/05 05:29:03;;;;;;;3.15;1.40;;;;;;;15.44;97.23;96258.31;5011646;28;25016;-77
2022/07/05 05:31:30;;;;;;;5.37;1.70;;;;;;;15.52;95.74;96257.72;5012967;28;24511;-77
2022/07/05 05:33:56;;;;;;;2.65;1.65;;;;;;;15.47;94.15;96264.13;5012925;28;24440;-78
2022/07/05 05:36:22;;;;;;;1.98;1.52;;;;;;;15.55;93.03;96267.94;5012475;28;24973;-77
2022/07/05 05:38:49;;;;;;;3.15;1.65;;;;;;;15.53;92.94;96269.81;5012179;28;24459;-77
2022/07/05 05:41:17;;;;;;;2.15;1.30;;;;;;;15.72;91.92;96268.38;5012291;28;24475;-77
2022/07/05 05:43:44;;;;;;;4.30;1.30;;;;;;;15.76;90.15;96269.00;5012530;28;25013;-77
2022/07/05 05:46:10;;;;;;;3.58;1.73;;;;;;;15.90;91.03;96263.53;5006607;28;24439;-77
2022/07/05 05:48:37;;;;;;;2.90;1.45;;;;;;;16.10;90.25;96264.63;5007283;28;24440;-77
2022/07/05 05:51:04;;;;;;;4.07;1.88;;;;;;;16.07;88.19;96264.03;5008108;28;24445;-77
2022/07/05 05:53:31;;;;;;;2.88;1.52;;;;;;;16.26;86.95;96272.09;5000717;28;24476;-76
2022/07/05 05:55:57;;;;;;;3.70;1.50;;;;;;;16.25;86.45;96270.44;5010230;28;24441;-77
2022/07/05 05:58:26;;;;;;;3.38;1.50;;;;;;;16.41;87.09;96272.69;5009333;28;24443;-77
2022/07/05 06:00:53;;;;;;;3.07;1.60;;;;;;;16.72;86.03;96276.34;5009546;28;24584;-77
2022/07/05 06:03:27;;;;;;;7.80;1.60;;;;;;;16.68;83.71;96272.31;5014831;28;24463;-77
2022/07/05 06:05:54;;;;;;;4.40;1.40;;;;;;;16.90;82.18;96272.28;5004818;28;24999;-77
2022/07/05 06:08:21;;;;;;;1.80;1.37;;;;;;;17.24;81.66;96268.72;5005384;28;24539;-79
2022/07/05 06:10:47;;;;;;;2.70;1.30;;;;;;;17.52;79.59;96277.78;5006795;28;24436;-77
2022/07/05 06:13:15;;;;;;;7.10;2.67;;;;;;;17.68;77.69;96278.16;5009111;28;24432;-78
2022/07/05 06:15:43;;;;;;;18.17;7.43;;;;;;;17.96;75.99;96279.34;5003887;28;24445;-77
2022/07/05 06:18:11;;;;;;;26.08;8.07;;;;;;;18.20;75.95;96284.28;5008934;28;24471;-77
2022/07/05 06:20:39;;;;;;;3.50;1.80;;;;;;;18.12;75.38;96281.50;5000578;28;24445;-77
2022/07/05 06:23:07;;;;;;;3.83;1.95;;;;;;;18.07;76.33;96289.75;5009311;28;24830;-77
2022/07/05 06:25:34;;;;;;;9.07;1.88;;;;;;;18.08;75.64;96285.34;5009429;28;24443;-77
2022/07/05 06:28:04;;;;;;;3.55;1.70;;;;;;;18.19;75.95;96293.13;5008965;28;24518;-76
2022/07/05 06:30:32;;;;;;;2.20;1.58;;;;;;;18.38;75.30;96290.59;5009375;28;24439;-76
2022/07/05 06:33:00;;;;;;;3.13;1.70;;;;;;;18.64;75.58;96287.50;5009671;28;24429;-75
2022/07/05 06:35:27;;;;;;;3.15;1.45;;;;;;;18.98;74.29;96293.28;5008585;28;24440;-76
2022/07/05 06:37:55;;;;;;;3.50;1.55;;;;;;;19.32;72.93;96295.56;5009125;28;24443;-76
2022/07/05 06:40:23;;;;;;;2.60;1.40;;;;;;;19.59;72.40;96300.94;5010038;28;24436;-76
2022/07/05 06:42:49;;;;;;;4.37;1.20;;;;;;;19.83;69.25;96294.44;5013660;28;24440;-72
2022/07/05 06:45:16;;;;;;;7.97;1.40;;;;;;;20.12;68.11;96301.47;5009971;28;24463;-75
2022/07/05 06:47:43;;;;;;;2.58;1.27;;;;;;;20.20;63.72;96304.19;5007620;28;24447;-76
2022/07/05 06:50:11;;;;;;;3.20;1.05;;;;;;;20.46;65.50;96296.50;4999407;28;24444;-76
2022/07/05 06:52:40;;;;;;;1.27;1.17;;;;;;;20.77;63.80;96299.72;5009007;28;24519;-76
2022/07/05 06:55:07;;;;;;;2.53;1.20;;;;;;;20.44;60.38;96299.28;5003921;28;24519;-76
2022/07/05 06:57:34;;;;;;;3.03;1.42;;;;;;;20.46;61.52;96302.59;5007153;28;24436;-76
2022/07/05 07:00:01;;;;;;;4.57;1.23;;;;;;;20.73;63.33;96299.19;5003681;28;24441;-76
2022/07/05 07:02:27;;;;;;;6.00;1.40;;;;;;;20.85;59.58;96291.09;5010426;28;24833;-76
2022/07/05 07:04:54;;;;;;;2.65;1.20;;;;;;;20.88;60.04;96304.81;5006958;28;24471;-76
2022/07/05 07:10:06;;;;;;;4.88;1.30;;;;;;;21.34;60.17;96295.09;5012285;28;24834;-76
2022/07/05 07:12:32;;;;;;;3.70;0.90;;;;;;;21.49;56.63;96303.31;5012317;28;24425;-76
2022/07/05 07:14:59;;;;;;;1.65;0.75;;;;;;;21.86;59.45;96304.94;5012077;28;24639;-77
2022/07/05 07:17:26;;;;;;;1.25;0.70;;;;;;;22.02;58.63;96304.22;5011754;28;24456;-76
2022/07/05 07:19:52;;;;;;;2.90;1.13;;;;;;;22.49;60.29;96296.78;5006842;28;24433;-76
2022/07/05 07:22:19;;;;;;;2.10;1.10;;;;;;;22.90;60.37;96302.25;5009273;28;24455;-76
2022/07/05 07:24:47;;;;;;;2.65;0.82;;;;;;;22.60;49.17;96303.63;5011766;28;24985;-77
2022/07/05 07:27:13;;;;;;;1.38;0.85;;;;;;;22.76;53.13;96306.31;5009963;28;24443;-77
2022/07/05 07:29:40;;;;;;;2.60;0.80;;;;;;;23.07;50.42;96308.47;5003910;28;24993;-76
2022/07/05 07:32:08;;;;;;;1.52;0.70;;;;;;;23.06;50.54;96304.16;5011278;28;24508;-76
2022/07/05 07:34:36;;;;;;;1.58;0.77;;;;;;;22.91;49.44;96306.53;5009099;28;24442;-76
2022/07/05 07:37:03;;;;;;;1.27;0.73;;;;;;;23.18;52.67;96314.28;5011174;28;24874;-77
2022/07/05 07:39:31;;;;;;;1.10;0.77;;;;;;;23.25;50.82;96310.97;5011702;28;25022;-76
2022/07/05 07:41:59;;;;;;;1.50;0.90;;;;;;;23.14;43.98;96312.94;5011527;28;24467;-76
2022/07/05 07:44:26;;;;;;;3.70;1.00;;;;;;;23.01;44.78;96307.28;5009690;28;24472;-76
2022/07/05 07:46:52;;;;;;;1.50;0.95;;;;;;;23.46;51.67;96321.09;5009203;28;24448;-76
2022/07/05 07:49:19;;;;;;;1.40;0.75;;;;;;;23.57;46.82;96315.50;5009057;28;25007;-76
2022/07/05 07:51:45;;;;;;;5.55;2.45;;;;;;;23.23;47.42;96324.34;5001345;28;24444;-76
2022/07/05 07:54:12;;;;;;;1.90;1.00;;;;;;;23.79;52.27;96308.75;5009400;28;24440;-76
2022/07/05 07:56:38;;;;;;;1.48;0.65;;;;;;;23.46;42.71;96313.97;5010320;28;24448;-76
2022/07/05 07:59:06;;;;;;;1.58;0.70;;;;;;;23.66;41.52;96322.47;5012369;28;24447;-76
2022/07/05 08:01:33;;;;;;;11.98;5.68;;;;;;;23.78;42.92;96318.53;5008806;28;24448;-76
2022/07/05 08:03:59;;;;;;;1.13;0.60;;;;;;;23.89;42.44;96312.91;5011749;28;24526;-76
2022/07/05 08:06:26;;;;;;;2.53;0.68;;;;;;;23.65;40.84;96321.59;5011520;28;24440;-76
2022/07/05 08:08:52;;;;;;;1.30;0.70;;;;;;;23.07;42.17;96321.69;5004183;28;24436;-75
2022/07/05 08:11:18;;;;;;;3.05;0.90;;;;;;;23.24;42.82;96318.06;5007027;28;24825;-76
2022/07/05 08:13:45;;;;;;;1.20;0.80;;;;;;;23.47;42.01;96312.16;5011396;28;24838;-76
2022/07/05 08:16:13;;;;;;;2.25;0.68;;;;;;;23.55;42.29;96314.84;5011482;28;24433;-75
2022/07/05 08:21:35;;;;;;;6.45;1.42;;;;;;;23.15;42.24;96319.88;4999898;28;24479;-76
2022/07/05 08:24:03;;;;;;;1.38;0.65;;;;;;;23.23;41.50;96321.72;5005868;28;24436;-75
2022/07/05 08:26:30;;;;;;;1.50;0.60;;;;;;;23.60;43.36;96326.56;5010722;28;24436;-76
2022/07/05 08:28:58;;;;;;;3.65;1.10;;;;;;;24.09;39.70;96320.50;5006921;28;24444;-76
2022/07/05 08:31:26;;;;;;;3.00;1.00;;;;;;;24.12;37.60;96320.16;5009498;28;24451;-76
2022/07/05 08:33:52;;;;;;;3.75;0.80;;;;;;;24.54;41.29;96316.47;5000199;28;24432;-75
2022/07/05 08:36:19;;;;;;;0.82;0.60;;;;;;;25.04;40.12;96304.69;5008574;28;24957;-75
2022/07/05 08:38:45;;;;;;;1.38;0.77;;;;;;;25.20;46.24;96309.94;5010905;28;24446;-75
2022/07/05 08:41:13;;;;;;;2.28;0.68;;;;;;;25.81;41.06;96310.06;5007560;28;24463;-78
2022/07/05 08:43:41;;;;;;;1.27;0.60;;;;;;;25.78;39.05;96313.91;5011595;28;24437;-77
2022/07/05 08:46:10;;;;;;;1.90;0.75;;;;;;;25.88;37.84;96310.16;5013327;28;24441;-77
2022/07/05 08:48:41;;;;;;;2.30;0.70;;;;;;;26.13;39.98;96303.63;5010277;28;24450;-77
2022/07/05 08:51:11;;;;;;;1.30;0.70;;;;;;;26.31;37.82;96309.44;5010802;28;24529;-77
2022/07/05 08:53:38;;;;;;;0.90;0.60;;;;;;;25.77;36.82;96306.06;5005502;28;24436;-77
2022/07/05 08:56:06;;;;;;;3.58;0.75;;;;;;;25.81;37.44;96302.94;5010712;28;24845;-77
2022/07/05 08:58:33;;;;;;;0.80;0.60;;;;;;;25.90;37.81;96303.69;5007589;28;24439;-77
2022/07/05 09:01:00;;;;;;;7.20;1.10;;;;;;;24.94;35.13;96306.72;5008498;28;24433;-77
2022/07/05 09:03:33;;;;;;;1.90;0.70;;;;;;;24.81;36.33;96315.25;5009861;28;24503;-76
2022/07/05 09:06:02;;;;;;;3.00;0.80;;;;;;;25.16;39.83;96299.88;5004462;28;24982;-77
2022/07/05 09:08:32;;;;;;;2.90;0.70;;;;;;;24.80;38.41;96297.66;5008882;28;24467;-76
2022/07/05 09:11:00;;;;;;;3.67;1.00;;;;;;;23.75;39.12;96308.25;5002190;28;24818;-77
2022/07/05 09:13:26;;;;;;;2.30;0.85;;;;;;;23.30;39.05;96316.63;5012546;28;24835;-73
2022/07/05 09:15:54;;;;;;;2.00;0.83;;;;;;;23.65;39.60;96313.66;5005422;28;25000;-77
2022/07/05 09:18:39;;;;;;;0.90;0.60;;;;;;;24.43;42.48;96317.66;5002501;28;24596;-77
2022/07/05 09:21:14;;;;;;;1.75;0.75;;;;;;;25.21;38.92;96314.22;5006941;28;24451;-77
2022/07/05 09:23:42;;;;;;;1.50;0.80;;;;;;;25.51;38.50;96322.34;5005801;28;24480;-76
2022/07/05 09:26:09;;;;;;;1.80;0.63;;;;;;;26.20;43.35;96327.66;4999753;28;25056;-77
2022/07/05 09:28:35;;;;;;;1.23;0.80;;;;;;;24.97;36.76;96319.63;5009297;28;25455;-77
2022/07/05 09:31:02;;;;;;;3.80;0.60;;;;;;;25.29;41.78;96319.50;5006364;28;24895;-77
2022/07/05 09:33:28;;;;;;;2.70;0.82;;;;;;;25.93;37.60;96324.56;5007693;28;24487;-77
2022/07/05 09:35:57;;;;;;;1.63;0.70;;;;;;;26.18;38.86;96319.03;5004215;28;24985;-76
2022/07/05 09:38:26;;;;;;;1.50;0.77;;;;;;;26.16;38.57;96324.53;5008651;28;24476;-77
2022/07/05 09:40:54;;;;;;;1.92;0.90;;;;;;;26.35;37.76;96330.31;5009410;28;24440;-77
2022/07/05 09:43:21;;;;;;;1.27;0.60;;;;;;;26.50;41.46;96321.38;5003652;28;24456;-76
2022/07/05 09:45:53;;;;;;;1.80;0.70;;;;;;;26.53;37.90;96334.31;5009561;28;24842;-75
2022/07/05 09:48:19;;;;;;;5.32;0.90;;;;;;;25.79;35.57;96328.81;5007714;28;24436;-76
2022/07/05 09:50:46;;;;;;;1.13;0.60;;;;;;;25.39;36.27;96331.69;5009648;28;24490;-76
2022/07/05 09:53:12;;;;;;;1.40;0.55;;;;;;;25.82;41.28;96323.16;5009298;28;25027;-76
2022/07/05 09:55:40;;;;;;;2.90;0.80;;;;;;;24.76;38.06;96328.16;5007961;28;24439;-76
2022/07/05 09:58:07;;;;;;;2.10;1.03;;;;;;;24.63;38.13;96329.53;5022012;23;24936;-72
2022/07/05 10:00:34;;;;;;;1.98;0.90;;;;;;;24.63;37.90;96326.88;5008607;28;24432;-72
2022/07/05 10:03:02;;;;;;;4.00;1.00;;;;;;;24.31;37.35;96330.38;5009535;28;24452;-72
2022/07/05 10:05:30;;;;;;;1.65;0.93;;;;;;;24.58;38.94;96323.91;5009297;28;24441;-72
2022/07/05 10:07:59;;;;;;;2.78;0.70;;;;;;;25.03;37.22;96322.44;5008757;28;24452;-72
2022/07/05 10:10:26;;;;;;;2.00;0.90;;;;;;;24.43;38.95;96322.13;5009579;28;24818;-72
2022/07/05 10:12:58;;;;;;;1.40;0.65;;;;;;;24.62;37.63;96329.69;5005054;28;24437;-72
2022/07/05 10:15:26;;;;;;;2.45;0.82;;;;;;;24.90;36.92;96324.78;5009394;28;24436;-72
2022/07/05 10:17:57;;;;;;;3.10;1.00;;;;;;;25.41;36.59;96324.41;5008916;28;24443;-72
2022/07/05 10:20:28;;;;;;;2.40;1.07;;;;;;;24.41;38.16;96324.94;5009315;28;24436;-72
2022/07/05 10:22:56;;;;;;;3.30;1.00;;;;;;;24.42;40.04;96328.41;5009506;28;24872;-72
2022/07/05 10:25:23;;;;;;;1.50;0.80;;;;;;;24.80;37.32;96332.94;5007809;28;24559;-72
2022/07/05 10:27:53;;;;;;;1.40;0.65;;;;;;;25.29;35.70;96330.13;5008854;28;24490;-72
2022/07/05 10:30:23;;;;;;;4.55;0.80;;;;;;;25.35;40.06;96332.03;5006648;28;24443;-72
2022/07/05 10:32:49;;;;;;;2.88;0.70;;;;;;;25.48;41.03;96328.03;5009003;28;24507;-72
2022/07/05 10:35:17;;;;;;;1.48;0.95;;;;;;;25.85;39.24;96326.47;5010469;28;24443;-72
2022/07/05 10:37:44;;;;;;;2.63;0.75;;;;;;;25.96;43.25;96321.56;5012311;28;24980;-72
2022/07/05 10:40:12;;;;;;;2.45;0.80;;;;;;;25.21;37.69;96324.84;5004652;28;24460;-72
2022/07/05 10:42:41;;;;;;;2.40;0.80;;;;;;;24.47;37.57;96320.78;5012871;28;24551;-72
2022/07/05 10:45:30;;;;;;;3.80;0.98;;;;;;;24.86;38.22;96319.00;5012238;28;24510;-72
2022/07/05 10:48:16;;;;;;;0.95;0.60;;;;;;;24.94;38.62;96312.84;5007266;28;24806;-72
2022/07/05 10:50:44;;;;;;;2.30;1.00;;;;;;;24.39;38.32;96330.41;5005235;28;24483;-72
2022/07/05 10:53:12;;;;;;;3.88;1.05;;;;;;;24.90;42.39;96316.84;5012250;28;24463;-72
2022/07/05 10:55:48;;;;;;;2.80;0.97;;;;;;;25.04;38.36;96329.38;5011625;28;24912;-72
2022/07/05 10:58:23;;;;;;;1.50;0.80;;;;;;;24.73;38.01;96331.97;5006270;28;24444;-72
2022/07/05 11:01:44;;;;;;;2.13;0.90;;;;;;;24.06;38.17;96331.41;5012153;28;24445;-72
2022/07/05 11:04:27;;;;;;;1.55;0.80;;;;;;;24.32;40.31;96329.38;5006041;28;24443;-72
2022/07/05 11:06:53;;;;;;;2.55;0.70;;;;;;;24.21;39.62;96337.66;5007251;28;24881;-72
2022/07/05 11:09:21;;;;;;;1.57;0.80;;;;;;;24.15;38.90;96339.19;5010179;28;24440;-72
2022/07/05 11:12:02;;;;;;;2.38;1.00;;;;;;;23.70;39.51;96331.75;5012167;28;24437;-72
2022/07/05 11:14:37;;;;;;;2.15;0.80;;;;;;;23.98;39.14;96331.41;5005153;28;24459;-72
2022/07/05 11:17:30;;;;;;;2.33;1.00;;;;;;;24.69;38.59;96335.13;5007488;28;25051;-72
2022/07/05 11:20:09;;;;;;;4.07;0.90;;;;;;;24.35;38.72;96333.53;5006654;28;24460;-72
2022/07/05 11:22:38;;;;;;;2.60;0.90;;;;;;;24.54;38.03;96332.34;5011741;28;24452;-72
2022/07/05 11:25:07;;;;;;;1.50;1.00;;;;;;;24.39;42.14;96338.34;5011865;28;24444;-72
2022/07/05 11:27:34;;;;;;;1.80;1.00;;;;;;;24.02;38.65;96343.31;5011756;28;24436;-72
2022/07/05 11:30:01;;;;;;;4.50;0.82;;;;;;;23.87;39.80;96325.44;5012138;28;24444;-72
2022/07/05 11:32:38;;;;;;;2.53;0.85;;;;;;;24.21;41.22;96320.97;5011630;28;24439;-72
2022/07/05 11:35:16;;;;;;;1.48;0.90;;;;;;;24.54;40.94;96314.63;5011827;28;24791;-72
2022/07/05 11:37:59;;;;;;;1.92;1.00;;;;;;;24.42;40.90;96329.25;5010146;28;24518;-73
2022/07/05 11:40:31;;;;;;;1.77;0.80;;;;;;;24.92;39.06;96319.31;5011698;28;24990;-73
2022/07/05 11:42:58;;;;;;;1.92;1.05;;;;;;;25.01;39.66;96318.28;5011477;28;24518;-73